Aviation Digital Data Service (ADDS)

Output produced by TAFs form (2044 UTC 30 August 2016)
found at http://aviationweather.gov/adds/tafs/
 
KCNY 301741Z 3018/3118 VRB03KT P6SM SKC 
     FM302100 32005KT P6SM FEW150 
     FM310200 12004KT P6SM FEW250